createdAt,value
2022-09-12T06:44:53.296Z,13.37
2022-09-12T07:00:19.033Z,13.99
2022-09-12T07:02:50.658Z,14.13
2022-09-12T07:05:21.915Z,14.28
2022-09-12T07:08:04.221Z,14.40
2022-09-12T07:10:36.553Z,14.51
2022-09-12T07:13:05.155Z,14.62
2022-09-12T07:15:37.843Z,14.60
2022-09-12T07:18:11.408Z,14.64
2022-09-12T07:20:43.397Z,14.63
2022-09-12T07:23:17.987Z,14.73
2022-09-12T07:25:57.849Z,14.84
2022-09-12T07:28:45.916Z,14.88
2022-09-12T07:31:35.234Z,14.72
2022-09-12T07:37:04.060Z,14.83
2022-09-12T07:39:32.537Z,14.86
2022-09-12T07:42:02.395Z,15.04
2022-09-12T07:44:32.105Z,15.10
2022-09-12T07:47:16.732Z,15.24
2022-09-12T07:49:45.849Z,15.27
2022-09-12T07:52:15.388Z,15.37
2022-09-12T07:54:45.789Z,15.56
2022-09-12T07:57:28.765Z,15.51
2022-09-12T07:59:58.926Z,15.53
2022-09-12T08:02:39.453Z,15.82
2022-09-12T08:05:20.926Z,15.89
2022-09-12T08:07:55.813Z,15.94
2022-09-12T08:10:38.159Z,16.02
2022-09-12T08:13:09.400Z,16.27
2022-09-12T08:15:46.806Z,16.57
2022-09-12T08:18:21.622Z,16.72
2022-09-12T08:20:50.082Z,16.83
2022-09-12T08:23:21.324Z,16.74
2022-09-12T08:25:53.083Z,16.76
2022-09-12T08:28:24.437Z,16.94
2022-09-12T08:30:52.918Z,17.06
2022-09-12T08:33:22.932Z,17.03
2022-09-12T08:35:51.579Z,17.38
2022-09-12T08:38:20.011Z,17.72
2022-09-12T08:40:54.805Z,17.88
2022-09-12T08:43:33.614Z,18.00
2022-09-12T08:46:06.546Z,18.16
2022-09-12T08:48:36.685Z,18.21
2022-09-12T08:51:06.191Z,18.26
2022-09-12T08:53:37.439Z,18.45
2022-09-12T08:56:08.691Z,18.59
2022-09-12T08:58:41.950Z,18.64
2022-09-12T09:01:15.570Z,18.76
2022-09-12T09:04:10.921Z,19.04
2022-09-12T09:07:07.206Z,19.09
2022-09-12T09:09:45.778Z,19.10
2022-09-12T09:12:18.752Z,19.04
2022-09-12T09:15:14.989Z,18.53
2022-09-12T09:17:44.948Z,18.49
2022-09-12T09:20:22.422Z,18.52
2022-09-12T09:22:53.578Z,18.81
2022-09-12T09:25:25.193Z,19.01
2022-09-12T09:27:59.327Z,19.56
2022-09-12T09:30:28.961Z,19.05
2022-09-12T09:33:00.146Z,19.52
2022-09-12T09:35:39.104Z,20.50
2022-09-12T09:38:20.103Z,20.67
2022-09-12T09:40:55.388Z,20.04
2022-09-12T09:43:24.696Z,19.98
2022-09-12T09:45:54.357Z,20.61
2022-09-12T09:48:32.143Z,20.58
2022-09-12T09:51:04.044Z,20.12
2022-09-12T09:53:40.944Z,19.76
2022-09-12T09:56:15.524Z,19.48
2022-09-12T09:58:55.065Z,19.46
2022-09-12T10:01:41.678Z,20.31
2022-09-12T10:04:24.455Z,20.85
2022-09-12T10:06:56.628Z,20.58
2022-09-12T10:09:34.319Z,20.28
2022-09-12T10:12:36.652Z,19.81
2022-09-12T10:15:21.946Z,19.39
2022-09-12T10:17:51.949Z,19.11
2022-09-12T10:20:39.225Z,18.82
2022-09-12T10:23:37.942Z,18.57
2022-09-12T10:26:23.611Z,18.42
2022-09-12T10:29:27.073Z,18.35
2022-09-12T10:32:52.636Z,18.34
2022-09-12T10:35:53.931Z,18.40
2022-09-12T10:39:05.601Z,18.76
2022-09-12T10:41:57.631Z,19.67
2022-09-12T10:44:51.618Z,20.09
2022-09-12T10:50:33.523Z,22.64
2022-09-12T10:53:34.339Z,22.03
2022-09-12T10:56:33.712Z,21.26
2022-09-12T10:59:25.059Z,20.99
2022-09-12T11:02:04.448Z,20.72
2022-09-12T11:11:33.605Z,19.91
2022-09-12T11:14:15.919Z,19.69
2022-09-12T11:17:01.157Z,19.52
2022-09-12T11:19:56.387Z,19.48
2022-09-12T11:22:56.172Z,19.46
2022-09-12T11:25:33.324Z,19.47
2022-09-12T11:28:45.362Z,19.34
2022-09-12T11:32:17.050Z,19.21
2022-09-12T11:35:02.814Z,19.14
2022-09-12T11:37:47.704Z,19.33
2022-09-12T11:40:33.731Z,19.43
2022-09-12T11:43:11.962Z,20.20
2022-09-12T11:46:02.772Z,20.93
2022-09-12T11:51:56.782Z,21.82
2022-09-12T11:57:37.746Z,20.58
2022-09-12T12:00:10.422Z,20.66
2022-09-12T12:05:46.353Z,21.42
2022-09-12T12:08:16.207Z,21.77
2022-09-12T12:10:46.978Z,21.73
2022-09-12T12:13:20.866Z,21.39
2022-09-12T12:15:50.886Z,21.05
2022-09-12T12:18:20.903Z,20.42
2022-09-12T12:20:49.480Z,20.29
2022-09-12T12:24:04.042Z,20.16
2022-09-12T12:27:00.583Z,20.23
2022-09-12T12:29:43.840Z,20.55
2022-09-12T12:32:24.299Z,20.55
2022-09-12T12:35:18.694Z,20.54
2022-09-12T12:37:56.131Z,21.05
2022-09-12T12:40:29.507Z,21.38
2022-09-12T12:43:06.335Z,21.95
2022-09-12T12:46:12.430Z,22.15
2022-09-12T12:48:51.690Z,21.83
2022-09-12T12:51:49.589Z,21.48
2022-09-12T12:54:33.910Z,21.17
2022-09-12T12:57:22.008Z,21.23
2022-09-12T12:59:53.685Z,21.10
2022-09-12T13:02:30.459Z,20.76
2022-09-12T13:05:00.996Z,21.20
2022-09-12T13:07:34.629Z,21.76
2022-09-12T13:10:05.950Z,22.39
2022-09-12T13:12:38.325Z,22.67
2022-09-12T13:15:43.498Z,22.64
2022-09-12T13:18:14.100Z,22.48
2022-09-12T13:20:49.820Z,22.49
2022-09-12T13:23:26.355Z,22.68
2022-09-12T13:25:56.183Z,22.52
2022-09-12T13:28:27.763Z,22.11
2022-09-12T13:31:05.179Z,21.29
2022-09-12T13:33:38.075Z,20.71
2022-09-12T13:36:23.834Z,20.39
2022-09-12T13:39:03.598Z,20.08
2022-09-12T13:41:42.802Z,20.15
2022-09-12T13:44:15.245Z,20.47
2022-09-12T13:46:44.329Z,20.88
2022-09-12T13:49:24.126Z,21.39
2022-09-12T13:52:01.670Z,21.73
2022-09-12T13:54:30.790Z,22.40
2022-09-12T13:56:59.957Z,22.30
2022-09-12T13:59:30.047Z,22.65
2022-09-12T14:01:58.748Z,22.78
2022-09-12T14:04:49.982Z,23.18
2022-09-12T14:07:23.367Z,23.62
2022-09-12T14:10:01.236Z,23.63
2022-09-12T14:12:34.853Z,23.35
2022-09-12T14:15:09.757Z,23.08
2022-09-12T14:17:40.261Z,22.85
2022-09-12T14:20:13.685Z,22.47
2022-09-12T14:22:42.922Z,22.15
2022-09-12T14:25:16.304Z,21.97
2022-09-12T14:27:47.935Z,21.69
2022-09-12T14:30:25.715Z,21.34
2022-09-12T14:33:17.744Z,21.04
2022-09-12T14:35:47.630Z,20.50
2022-09-12T14:38:25.986Z,20.24
2022-09-12T14:41:01.171Z,20.05
2022-09-12T14:43:31.325Z,19.80
2022-09-12T14:46:03.237Z,19.77
2022-09-12T14:48:33.751Z,19.79
2022-09-12T14:51:02.682Z,19.64
2022-09-12T14:53:35.825Z,19.72
2022-09-12T14:56:12.224Z,19.79
2022-09-12T14:58:41.295Z,20.23
2022-09-12T15:01:28.415Z,20.29
2022-09-12T15:03:59.932Z,20.38
2022-09-12T15:06:31.241Z,20.22
2022-09-12T15:09:04.156Z,20.03
2022-09-12T15:11:34.172Z,19.84
2022-09-12T15:14:13.157Z,19.54
2022-09-12T15:16:46.028Z,19.29
2022-09-12T15:19:15.329Z,19.14
2022-09-12T15:21:43.812Z,19.13
2022-09-12T15:24:12.515Z,19.00
2022-09-12T15:26:40.880Z,19.03
2022-09-12T15:29:09.133Z,18.95
2022-09-12T15:31:37.446Z,18.74
2022-09-12T15:34:08.373Z,18.75
2022-09-12T15:36:37.138Z,18.73
2022-09-12T15:39:06.143Z,18.78
2022-09-12T15:41:37.088Z,18.82
2022-09-12T15:44:06.313Z,18.89
2022-09-12T15:46:34.967Z,18.98
2022-09-12T15:49:03.755Z,18.97
2022-09-12T15:51:34.299Z,18.73
2022-09-12T15:54:06.420Z,18.42
2022-09-12T15:56:35.118Z,18.34
2022-09-12T15:59:03.713Z,18.30
2022-09-12T16:01:32.120Z,18.17
2022-09-12T16:04:01.292Z,18.12
2022-09-12T16:06:37.283Z,18.04
2022-09-12T16:09:07.752Z,17.88
2022-09-12T16:11:37.844Z,17.74
2022-09-12T16:14:06.829Z,17.78
2022-09-12T16:16:35.719Z,17.76
2022-09-12T16:19:04.958Z,17.64
2022-09-12T16:21:35.071Z,17.59
2022-09-12T16:24:03.677Z,17.51
2022-09-12T16:26:32.519Z,17.46
2022-09-12T16:29:02.246Z,17.38
2022-09-12T16:31:31.109Z,17.31
2022-09-12T16:33:59.662Z,17.22
2022-09-12T16:36:28.197Z,17.18
2022-09-12T16:39:00.952Z,17.08
2022-09-12T16:41:29.915Z,17.03
2022-09-12T16:43:58.542Z,17.07
2022-09-12T16:46:29.969Z,17.09
2022-09-12T16:48:59.563Z,17.03
2022-09-12T16:51:30.187Z,17.08
2022-09-12T16:53:59.044Z,17.02
2022-09-12T16:56:29.797Z,16.93
2022-09-12T16:58:57.957Z,16.84
2022-09-12T17:01:27.429Z,16.75
2022-09-12T17:03:57.183Z,16.66
2022-09-12T17:06:27.214Z,16.56
2022-09-12T17:08:57.014Z,16.47
2022-09-12T17:11:26.760Z,16.38
2022-09-12T17:14:04.882Z,16.25
2022-09-12T17:16:34.361Z,16.05
2022-09-12T17:19:02.642Z,15.92
2022-09-12T17:21:31.134Z,15.89
2022-09-12T17:24:00.876Z,15.87
2022-09-12T17:26:29.543Z,15.87
2022-09-12T17:28:59.743Z,15.80
2022-09-12T17:31:41.828Z,15.62
2022-09-12T17:34:14.404Z,15.51
2022-09-12T17:36:44.364Z,15.50
2022-09-12T17:39:13.903Z,15.48
2022-09-12T17:41:44.179Z,15.38
2022-09-12T17:44:18.311Z,15.35
2022-09-12T17:46:48.921Z,15.36
2022-09-12T17:49:22.104Z,15.38
2022-09-12T17:51:56.833Z,15.38
2022-09-12T17:54:27.819Z,15.31
2022-09-12T17:56:56.506Z,15.31
2022-09-12T17:59:26.731Z,15.21
2022-09-12T18:02:14.904Z,15.11
2022-09-12T18:07:39.898Z,14.86
2022-09-12T18:10:19.881Z,14.78
2022-09-12T18:12:50.982Z,14.77
2022-09-12T18:15:21.166Z,14.76
2022-09-12T18:17:49.959Z,14.76
2022-09-12T18:20:19.797Z,14.76
2022-09-12T18:22:51.744Z,14.68
2022-09-12T18:25:20.206Z,14.72
2022-09-12T18:27:51.800Z,14.67
2022-09-12T18:30:23.515Z,14.57
2022-09-12T18:32:52.063Z,14.55
2022-09-12T18:35:30.292Z,14.48
2022-09-12T18:37:58.994Z,14.40
2022-09-12T18:40:27.938Z,14.35
2022-09-12T18:42:59.208Z,14.31
2022-09-12T18:45:35.056Z,14.31
2022-09-12T18:48:06.755Z,14.27
2022-09-12T18:50:45.480Z,14.26
2022-09-12T18:53:15.692Z,14.17
2022-09-12T18:55:45.565Z,14.15
2022-09-12T18:58:14.482Z,14.01
2022-09-12T19:00:48.612Z,14.03
2022-09-12T19:03:19.536Z,13.96
2022-09-12T19:05:51.105Z,13.97
2022-09-12T19:08:20.048Z,13.95
2022-09-12T19:10:56.949Z,13.96
2022-09-12T19:13:25.903Z,13.94
2022-09-12T19:15:55.866Z,13.89
2022-09-12T19:18:24.814Z,13.84
2022-09-12T19:21:08.662Z,13.78
2022-09-12T19:23:37.926Z,13.73
2022-09-12T19:26:09.371Z,13.72
2022-09-12T19:28:40.518Z,13.70
2022-09-12T19:31:13.129Z,13.73
2022-09-12T19:33:47.242Z,13.69
2022-09-12T19:36:41.259Z,13.66
2022-09-12T19:39:09.003Z,13.62
2022-09-12T19:41:39.377Z,13.60
2022-09-12T19:44:09.500Z,13.55
2022-09-12T19:46:43.854Z,13.53
2022-09-12T19:49:13.258Z,13.52
2022-09-12T19:51:42.571Z,13.48
2022-09-12T19:54:11.843Z,13.46
2022-09-12T19:56:43.318Z,13.45
2022-09-12T19:59:12.526Z,13.44
2022-09-12T20:01:43.301Z,13.39
2022-09-12T20:04:12.860Z,13.36
2022-09-12T20:06:41.456Z,13.35
2022-09-12T20:09:09.816Z,13.36
2022-09-12T20:11:38.597Z,13.34
2022-09-12T20:14:07.955Z,13.29
2022-09-12T20:16:37.922Z,13.23
2022-09-12T20:19:08.840Z,13.20
2022-09-12T20:21:37.854Z,13.17
2022-09-12T20:24:16.829Z,13.13
2022-09-12T20:26:50.745Z,13.08
2022-09-12T20:29:31.697Z,13.02
2022-09-12T20:32:06.335Z,12.97
2022-09-12T20:34:45.407Z,12.95
2022-09-12T20:37:14.106Z,12.82
2022-09-12T20:42:41.216Z,12.69
2022-09-12T20:45:13.414Z,12.67
2022-09-12T20:47:52.140Z,12.64
2022-09-12T20:50:23.150Z,12.61
2022-09-12T20:52:57.313Z,12.52
2022-09-12T20:55:28.170Z,12.42
2022-09-12T20:58:22.597Z,12.41
2022-09-12T21:01:03.542Z,12.44
2022-09-12T21:03:58.773Z,12.43
2022-09-12T21:09:42.460Z,12.38
2022-09-12T21:12:41.310Z,12.37
2022-09-12T21:15:42.465Z,12.37
2022-09-12T21:21:11.774Z,12.29
2022-09-12T21:27:28.211Z,12.18
2022-09-12T21:33:05.787Z,12.12
2022-09-12T21:35:59.154Z,12.06
2022-09-12T21:38:31.638Z,11.92
2022-09-12T21:44:25.345Z,11.82
2022-09-12T21:46:58.208Z,11.81
2022-09-12T21:49:45.846Z,11.79
2022-09-12T21:52:29.970Z,11.76
2022-09-12T21:55:10.254Z,11.75
2022-09-12T21:57:41.846Z,11.68
2022-09-12T22:00:18.141Z,11.66
2022-09-12T22:03:01.678Z,11.64
2022-09-12T22:09:19.375Z,11.57
2022-09-12T22:12:17.550Z,11.49
2022-09-12T22:15:12.746Z,11.47
2022-09-12T22:18:13.069Z,11.49
2022-09-12T22:21:08.079Z,11.37
2022-09-12T22:23:55.702Z,11.47
2022-09-12T22:29:19.366Z,11.39
2022-09-12T22:31:56.486Z,11.37
2022-09-12T22:34:49.729Z,11.37
2022-09-12T22:37:23.727Z,11.34
2022-09-12T22:42:57.170Z,11.25
2022-09-12T22:45:27.305Z,11.23
2022-09-12T22:48:00.417Z,11.19
2022-09-12T22:50:45.109Z,11.19
2022-09-12T22:53:37.762Z,11.20
2022-09-12T22:59:10.024Z,11.20
2022-09-12T23:01:40.914Z,11.21
2022-09-12T23:04:09.252Z,11.17
2022-09-12T23:06:37.630Z,11.15
2022-09-12T23:09:13.610Z,11.08
2022-09-12T23:11:44.610Z,11.12
2022-09-12T23:14:41.740Z,11.08
2022-09-12T23:17:14.400Z,11.06
2022-09-12T23:19:44.118Z,11.01
2022-09-12T23:22:25.910Z,11.02
2022-09-12T23:25:00.390Z,10.96
2022-09-12T23:27:29.973Z,10.93
2022-09-12T23:30:11.228Z,10.89
2022-09-12T23:32:39.854Z,10.87
2022-09-12T23:35:16.080Z,10.89
2022-09-12T23:37:49.567Z,10.86
2022-09-12T23:40:22.826Z,10.86
2022-09-12T23:42:51.350Z,10.84
2022-09-12T23:45:22.815Z,10.80
2022-09-12T23:47:51.204Z,10.81
2022-09-12T23:56:09.792Z,10.77
2022-09-12T23:58:40.824Z,10.76
